createdAt,value
2023-06-07T00:15:01.375Z,17.61
2023-06-07T00:30:07.651Z,17.43
2023-06-07T00:45:12.546Z,17.18
2023-06-07T01:00:16.818Z,17.03
2023-06-07T01:15:21.637Z,17.19
2023-06-07T01:30:32.601Z,17.23
2023-06-07T02:01:28.150Z,17.08
2023-06-07T02:16:46.082Z,16.97
2023-06-07T02:31:51.330Z,16.69
2023-06-07T03:02:13.681Z,16.33
2023-06-07T03:17:18.693Z,16.08
2023-06-07T03:32:23.224Z,15.97
2023-06-07T03:47:41.377Z,16.01
2023-06-07T04:33:36.658Z,18.29
2023-06-07T04:48:42.605Z,18.63
2023-06-07T05:04:03.918Z,18.74
2023-06-07T05:19:08.574Z,19.09
2023-06-07T05:49:30.761Z,20.11
2023-06-07T06:04:36.274Z,20.68
2023-06-07T06:19:40.747Z,21.26
2023-06-07T06:34:49.515Z,22.08
2023-06-07T06:49:55.753Z,23.07
2023-06-07T07:05:14.380Z,24.22
2023-06-07T07:35:37.751Z,26.40
2023-06-07T08:06:01.017Z,27.76
2023-06-07T08:21:05.511Z,28.17
2023-06-07T08:36:09.497Z,28.46
2023-06-07T08:51:16.898Z,28.69
2023-06-07T09:06:24.083Z,28.64
2023-06-07T09:36:54.802Z,28.86
2023-06-07T09:51:59.773Z,28.79
2023-06-07T10:07:06.233Z,28.85
2023-06-07T10:22:29.912Z,28.70
2023-06-07T10:53:03.396Z,28.23
2023-06-07T11:08:32.675Z,27.87
2023-06-07T11:38:58.788Z,28.00
2023-06-07T11:54:03.036Z,28.55
2023-06-07T12:09:21.155Z,28.92
2023-06-07T12:36:19.113Z,29.29
2023-06-07T12:51:23.813Z,29.26
2023-06-07T13:06:29.621Z,29.62
2023-06-07T13:21:34.143Z,29.81
2023-06-07T13:36:38.943Z,30.10
2023-06-07T14:07:14.956Z,30.25
2023-06-07T14:22:19.410Z,30.51
2023-06-07T14:52:42.409Z,30.80
2023-06-07T15:07:47.259Z,30.64
2023-06-07T15:23:05.268Z,29.99
2023-06-07T15:38:09.666Z,29.51
2023-06-07T15:53:17.842Z,28.81
2023-06-07T16:08:21.900Z,28.56
2023-06-07T16:23:40.149Z,28.55
2023-06-07T16:38:44.759Z,28.35
2023-06-07T16:53:48.878Z,27.88
2023-06-07T17:08:53.388Z,27.47
2023-06-07T17:23:57.751Z,27.02
2023-06-07T17:39:02.174Z,26.54
2023-06-07T17:54:06.242Z,26.13
2023-06-07T18:09:10.778Z,25.77
2023-06-07T18:24:14.924Z,25.35
2023-06-07T18:39:20.060Z,24.90
2023-06-07T18:54:24.405Z,24.42
2023-06-07T19:09:28.545Z,23.94
2023-06-07T19:24:34.824Z,23.30
2023-06-07T19:39:39.532Z,22.72
2023-06-07T19:54:44.120Z,22.23
2023-06-07T20:25:06.900Z,21.17
2023-06-07T20:40:11.702Z,20.74
2023-06-07T20:55:16.865Z,20.16
2023-06-07T21:10:21.465Z,19.62
2023-06-07T21:25:39.700Z,19.36
2023-06-07T21:40:43.712Z,19.19
2023-06-07T22:11:24.024Z,18.77
2023-06-07T22:26:43.332Z,18.62
2023-06-07T22:41:49.828Z,18.46
2023-06-07T22:57:09.008Z,18.28
2023-06-07T23:12:14.168Z,18.13
2023-06-07T23:27:18.639Z,18.03
2023-06-07T23:42:24.552Z,17.93
2023-06-07T23:57:42.586Z,17.61
